createdAt,value
2017-12-02T00:01:17.825Z,8.88
2017-12-02T00:03:44.870Z,8.82
2017-12-02T00:06:11.238Z,8.88
2017-12-02T00:08:37.637Z,8.90
2017-12-02T00:11:04.092Z,8.90
2017-12-02T00:13:30.405Z,8.90
2017-12-02T00:15:56.839Z,8.91
2017-12-02T00:18:23.274Z,8.90
2017-12-02T00:20:50.425Z,8.90
2017-12-02T00:23:16.758Z,8.91
2017-12-02T00:25:43.193Z,8.91
2017-12-02T00:28:09.629Z,8.96
2017-12-02T00:30:35.994Z,8.90
2017-12-02T00:33:02.367Z,8.91
2017-12-02T00:35:28.810Z,8.88
2017-12-02T00:37:55.981Z,8.91
2017-12-02T00:40:22.339Z,8.91
2017-12-02T00:42:48.746Z,8.91
2017-12-02T00:45:15.181Z,8.92
2017-12-02T00:47:41.616Z,8.98
2017-12-02T00:50:07.949Z,8.97
2017-12-02T00:52:34.486Z,9.05
2017-12-02T00:55:01.565Z,9.02
2017-12-02T00:57:27.975Z,9.01
2017-12-02T00:59:54.405Z,8.96
2017-12-02T01:02:20.769Z,8.99
2017-12-02T01:04:47.100Z,9.00
2017-12-02T01:07:13.417Z,8.99
2017-12-02T01:09:39.835Z,8.98
2017-12-02T01:12:07.087Z,8.93
2017-12-02T01:14:33.453Z,9.02
2017-12-02T01:16:59.854Z,9.01
2017-12-02T01:19:26.292Z,8.99
2017-12-02T01:21:52.826Z,9.01
2017-12-02T01:24:19.261Z,9.06
2017-12-02T01:26:45.629Z,8.99
2017-12-02T01:29:12.847Z,9.02
2017-12-02T01:31:39.282Z,8.99
2017-12-02T01:34:05.717Z,9.02
2017-12-02T01:36:32.150Z,8.99
2017-12-02T01:38:58.586Z,8.99
2017-12-02T01:41:25.020Z,9.02
2017-12-02T01:43:51.456Z,9.07
2017-12-02T01:46:18.641Z,9.07
2017-12-02T01:48:45.000Z,9.08
2017-12-02T01:51:11.405Z,8.91
2017-12-02T01:53:37.809Z,9.10
2017-12-02T01:56:04.247Z,9.11
2017-12-02T01:58:30.678Z,9.12
2017-12-02T02:00:57.009Z,9.18
2017-12-02T02:03:24.194Z,9.14
2017-12-02T02:05:50.595Z,9.19
2017-12-02T02:08:16.962Z,9.19
2017-12-02T02:10:43.400Z,9.11
2017-12-02T02:13:09.729Z,9.19
2017-12-02T02:15:36.129Z,9.17
2017-12-02T02:18:02.564Z,9.18
2017-12-02T02:20:29.715Z,9.21
2017-12-02T02:22:56.219Z,9.22
2017-12-02T02:25:22.658Z,9.20
2017-12-02T02:27:49.122Z,9.22
2017-12-02T02:30:15.556Z,9.09
2017-12-02T02:32:41.991Z,9.20
2017-12-02T02:35:08.425Z,9.17
2017-12-02T02:37:35.706Z,9.18
2017-12-02T02:40:02.114Z,9.17
2017-12-02T02:42:28.548Z,9.18
2017-12-02T02:44:54.983Z,9.17
2017-12-02T02:47:21.390Z,9.11
2017-12-02T02:49:47.852Z,9.16
2017-12-02T02:52:14.222Z,9.10
2017-12-02T02:54:41.389Z,9.14
2017-12-02T02:57:07.731Z,9.18
2017-12-02T02:59:34.102Z,9.19
2017-12-02T03:02:00.537Z,9.20
2017-12-02T03:04:26.975Z,9.23
2017-12-02T03:06:53.409Z,9.24
2017-12-02T03:09:19.773Z,9.22
2017-12-02T03:11:46.993Z,9.27
2017-12-02T03:14:13.357Z,9.21
2017-12-02T03:16:39.759Z,9.19
2017-12-02T03:19:06.090Z,9.16
2017-12-02T03:21:32.530Z,9.15
2017-12-02T03:23:58.963Z,9.14
2017-12-02T03:26:25.398Z,9.16
2017-12-02T03:28:52.553Z,9.16
2017-12-02T03:31:18.987Z,9.15
2017-12-02T03:33:45.440Z,9.13
2017-12-02T03:36:11.785Z,9.16
2017-12-02T03:38:38.185Z,9.10
2017-12-02T03:41:04.619Z,9.13
2017-12-02T03:43:31.052Z,9.16
2017-12-02T03:45:58.105Z,9.14
2017-12-02T03:48:24.536Z,9.14
2017-12-02T03:50:50.970Z,9.07
2017-12-02T03:53:17.407Z,9.10
2017-12-02T03:55:43.839Z,9.12
2017-12-02T03:58:10.275Z,9.11
2017-12-02T04:00:36.812Z,9.09
2017-12-02T04:03:03.964Z,9.06
2017-12-02T04:05:30.397Z,9.08
2017-12-02T04:07:56.833Z,9.09
2017-12-02T04:10:23.268Z,9.09
2017-12-02T04:12:49.599Z,9.05
2017-12-02T04:15:16.035Z,9.10
2017-12-02T04:17:42.492Z,9.02
2017-12-02T04:20:09.722Z,9.01
2017-12-02T04:22:36.157Z,9.04
2017-12-02T04:25:02.593Z,9.05
2017-12-02T04:27:29.045Z,9.12
2017-12-02T04:29:55.462Z,9.08
2017-12-02T04:32:21.896Z,9.13
2017-12-02T04:34:48.228Z,9.17
2017-12-02T04:37:15.329Z,9.19
2017-12-02T04:39:41.722Z,9.19
2017-12-02T04:42:08.043Z,9.20
2017-12-02T04:44:34.483Z,9.20
2017-12-02T04:47:00.912Z,9.23
2017-12-02T04:49:27.347Z,9.26
2017-12-02T04:51:53.782Z,9.29
2017-12-02T04:54:20.874Z,9.31
2017-12-02T04:56:47.368Z,9.16
2017-12-02T04:59:13.733Z,9.26
2017-12-02T05:01:40.072Z,9.29
2017-12-02T05:04:06.467Z,9.28
2017-12-02T05:06:32.903Z,9.23
2017-12-02T05:08:59.338Z,9.25
2017-12-02T05:11:26.477Z,9.24
2017-12-02T05:13:52.820Z,9.21
2017-12-02T05:16:19.255Z,9.20
2017-12-02T05:18:45.620Z,9.23
2017-12-02T05:21:12.021Z,9.21
2017-12-02T05:23:38.456Z,9.18
2017-12-02T05:26:04.817Z,9.18
2017-12-02T05:28:32.024Z,9.24
2017-12-02T05:30:58.476Z,9.23
2017-12-02T05:33:24.912Z,9.19
2017-12-02T05:35:51.348Z,9.18
2017-12-02T05:38:17.780Z,9.23
2017-12-02T05:40:44.215Z,9.22
2017-12-02T05:43:10.651Z,9.21
2017-12-02T05:45:37.833Z,9.24
2017-12-02T05:48:04.234Z,9.23
2017-12-02T05:50:30.671Z,9.26
2017-12-02T05:52:57.106Z,9.21
2017-12-02T05:55:23.539Z,9.19
2017-12-02T05:57:49.973Z,9.21
2017-12-02T06:00:16.408Z,9.16
2017-12-02T06:02:43.560Z,9.14
2017-12-02T06:05:09.995Z,9.19
2017-12-02T06:07:36.449Z,9.12
2017-12-02T06:10:02.866Z,9.13
2017-12-02T06:12:29.402Z,9.03
2017-12-02T06:14:55.835Z,9.06
2017-12-02T06:17:22.270Z,9.07
2017-12-02T06:19:49.422Z,9.01
2017-12-02T06:22:15.858Z,9.06
2017-12-02T06:24:42.290Z,9.08
2017-12-02T06:27:08.725Z,9.01
2017-12-02T06:29:35.162Z,9.06
2017-12-02T06:32:01.594Z,9.12
2017-12-02T06:34:27.911Z,9.19
2017-12-02T06:36:55.078Z,9.15
2017-12-02T06:39:21.513Z,9.14
2017-12-02T06:41:47.947Z,9.15
2017-12-02T06:44:14.386Z,9.23
2017-12-02T06:46:41.021Z,9.36
2017-12-02T06:49:07.456Z,9.34
2017-12-02T06:51:33.788Z,9.29
2017-12-02T06:54:00.975Z,9.25
2017-12-02T06:56:27.376Z,9.28
2017-12-02T06:58:53.811Z,9.20
2017-12-02T07:01:20.142Z,9.31
2017-12-02T07:03:46.581Z,9.30
2017-12-02T07:06:13.010Z,9.33
2017-12-02T07:08:39.650Z,9.33
2017-12-02T07:11:06.597Z,9.32
2017-12-02T07:13:33.031Z,9.31
2017-12-02T07:15:59.491Z,9.24
2017-12-02T07:18:26.419Z,9.23
2017-12-02T07:20:53.159Z,9.19
2017-12-02T07:23:19.833Z,9.28
2017-12-02T07:33:21.274Z,9.28
2017-12-02T07:35:47.744Z,9.28
2017-12-02T07:38:14.102Z,9.30
2017-12-02T07:40:40.810Z,9.38
2017-12-02T07:43:07.244Z,9.37
2017-12-02T07:45:33.783Z,9.41
2017-12-02T07:48:00.319Z,9.45
2017-12-02T07:50:26.959Z,9.49
2017-12-02T07:52:53.294Z,9.57
2017-12-02T07:55:19.725Z,9.62
2017-12-02T08:07:52.072Z,9.76
2017-12-02T08:10:18.506Z,9.59
2017-12-02T08:12:44.873Z,9.82
2017-12-02T08:15:11.419Z,9.87
2017-12-02T08:17:38.015Z,9.97
2017-12-02T08:20:04.561Z,10.03
2017-12-02T08:22:30.989Z,10.07
2017-12-02T08:24:57.645Z,10.09
2017-12-02T08:27:24.063Z,10.09
2017-12-02T08:29:50.803Z,10.13
2017-12-02T08:32:17.443Z,10.20
2017-12-02T08:34:44.204Z,10.28
2017-12-02T08:37:11.032Z,10.24
2017-12-02T08:39:37.466Z,10.30
2017-12-02T08:42:04.002Z,10.40
2017-12-02T08:44:30.640Z,10.50
2017-12-02T08:46:57.181Z,10.54
2017-12-02T08:49:23.820Z,10.62
2017-12-02T08:51:50.305Z,10.77
2017-12-02T08:54:16.621Z,10.91
2017-12-02T08:56:43.057Z,10.92
2017-12-02T08:59:09.626Z,10.83
2017-12-02T09:01:36.028Z,10.83
2017-12-02T09:04:02.526Z,10.74
2017-12-02T09:06:29.719Z,10.65
2017-12-02T09:08:56.045Z,10.65
2017-12-02T09:11:22.414Z,10.62
2017-12-02T09:13:49.288Z,10.55
2017-12-02T09:16:15.830Z,10.63
2017-12-02T09:18:42.468Z,10.62
2017-12-02T09:21:09.104Z,10.63
2017-12-02T09:23:35.485Z,10.53
2017-12-02T09:26:02.010Z,10.53
2017-12-02T09:28:28.684Z,10.48
2017-12-02T09:30:55.047Z,10.46
2017-12-02T09:33:21.444Z,10.50
2017-12-02T09:35:47.916Z,10.54
2017-12-02T09:38:14.351Z,10.55
2017-12-02T09:40:40.786Z,10.60
2017-12-02T09:43:07.344Z,10.50
2017-12-02T09:45:33.860Z,10.53
2017-12-02T09:48:00.704Z,10.49
2017-12-02T09:50:27.158Z,10.46
2017-12-02T09:52:53.505Z,10.49
2017-12-02T09:55:20.724Z,10.52
2017-12-02T09:57:47.261Z,10.58
2017-12-02T10:00:13.942Z,10.48
2017-12-02T10:02:42.846Z,10.55
2017-12-02T10:05:09.693Z,10.58
2017-12-02T10:07:36.175Z,10.59
2017-12-02T10:10:03.465Z,10.52
2017-12-02T10:12:31.092Z,10.46
2017-12-02T10:14:57.648Z,10.48
2017-12-02T10:17:25.681Z,10.52
2017-12-02T10:19:52.816Z,10.61
2017-12-02T10:22:23.648Z,10.62
2017-12-02T10:24:50.126Z,10.61
2017-12-02T10:27:16.689Z,10.65
2017-12-02T10:29:43.817Z,10.63
2017-12-02T10:32:10.250Z,10.74
2017-12-02T10:34:37.786Z,10.67
2017-12-02T10:37:04.347Z,10.54
2017-12-02T10:39:31.423Z,10.38
2017-12-02T10:41:58.761Z,10.68
2017-12-02T10:44:25.666Z,10.63
2017-12-02T10:46:52.549Z,10.56
2017-12-02T10:49:19.415Z,10.53
2017-12-02T10:51:46.101Z,10.57
2017-12-02T10:54:12.974Z,10.58
2017-12-02T10:56:39.441Z,10.54
2017-12-02T10:59:05.809Z,10.52
2017-12-02T11:01:32.177Z,10.45
2017-12-02T11:03:58.509Z,10.37
2017-12-02T11:06:25.250Z,10.36
2017-12-02T11:08:51.684Z,10.24
2017-12-02T11:11:18.222Z,10.10
2017-12-02T11:13:45.475Z,9.95
2017-12-02T11:16:11.910Z,9.87
2017-12-02T11:18:38.345Z,9.86
2017-12-02T11:21:05.277Z,9.82
2017-12-02T11:23:31.794Z,9.88
2017-12-02T11:25:58.365Z,9.91
2017-12-02T11:28:25.241Z,9.87
2017-12-02T11:30:51.644Z,9.94
2017-12-02T11:33:18.079Z,9.99
2017-12-02T11:35:45.169Z,9.94
2017-12-02T11:38:11.505Z,9.91
2017-12-02T11:40:37.964Z,9.83
2017-12-02T11:43:04.466Z,9.89
2017-12-02T11:45:30.949Z,9.81
2017-12-02T11:47:57.367Z,9.66
2017-12-02T11:50:23.736Z,9.59
2017-12-02T11:52:50.170Z,9.29
2017-12-02T11:55:16.707Z,9.42
2017-12-02T11:57:43.141Z,9.41
2017-12-02T12:00:09.475Z,9.29
2017-12-02T12:02:35.847Z,9.27
2017-12-02T12:05:02.345Z,9.34
2017-12-02T12:07:28.880Z,9.24
2017-12-02T12:09:55.316Z,9.21
2017-12-02T12:12:22.175Z,9.18
2017-12-02T12:14:48.594Z,9.07
2017-12-02T12:17:14.957Z,9.01
2017-12-02T12:19:41.501Z,9.01
2017-12-02T12:22:07.849Z,8.99
2017-12-02T12:24:34.336Z,8.94
2017-12-02T12:27:00.869Z,8.88
2017-12-02T12:29:27.305Z,8.99
2017-12-02T12:31:54.148Z,9.01
2017-12-02T12:34:20.481Z,8.93
2017-12-02T12:36:46.953Z,8.88
2017-12-02T12:39:13.492Z,8.82
2017-12-02T12:41:39.887Z,8.86
2017-12-02T12:44:06.343Z,8.85
2017-12-02T12:46:33.294Z,8.86
2017-12-02T12:49:00.094Z,8.89
2017-12-02T12:51:26.547Z,8.85
2017-12-02T12:53:52.982Z,8.88
2017-12-02T12:56:19.552Z,8.85
2017-12-02T12:58:46.568Z,8.77
2017-12-02T13:01:13.004Z,8.73
2017-12-02T13:03:39.374Z,8.79
2017-12-02T13:06:06.076Z,8.86
2017-12-02T13:08:32.530Z,8.83
2017-12-02T13:10:58.945Z,8.87
2017-12-02T13:13:25.277Z,8.81
2017-12-02T13:15:51.712Z,8.82
2017-12-02T13:18:18.352Z,8.87
2017-12-02T13:20:44.786Z,8.89
2017-12-02T13:23:11.222Z,8.93
2017-12-02T13:25:37.656Z,8.98
2017-12-02T13:28:04.110Z,9.03
2017-12-02T13:30:30.627Z,9.09
2017-12-02T13:32:57.061Z,9.09
2017-12-02T13:35:23.434Z,9.09
2017-12-02T13:37:49.829Z,9.11
2017-12-02T13:40:16.656Z,9.11
2017-12-02T13:42:43.213Z,9.13
2017-12-02T13:45:09.672Z,9.06
2017-12-02T13:47:36.080Z,9.08
2017-12-02T13:50:02.458Z,9.10
2017-12-02T13:52:29.497Z,9.14
2017-12-02T13:54:55.901Z,9.17
2017-12-02T13:57:22.350Z,9.19
2017-12-02T13:59:48.869Z,9.23
2017-12-02T14:02:15.201Z,9.21
2017-12-02T14:04:41.637Z,9.22
2017-12-02T14:07:08.683Z,9.26
2017-12-02T14:09:35.234Z,9.26
2017-12-02T14:12:01.553Z,9.20
2017-12-02T14:14:28.472Z,9.15
2017-12-02T14:16:54.933Z,9.24
2017-12-02T14:19:21.374Z,9.20
2017-12-02T14:21:48.109Z,9.16
2017-12-02T14:24:14.662Z,9.09
2017-12-02T14:26:41.158Z,9.00
2017-12-02T14:29:07.601Z,8.98
2017-12-02T14:31:34.369Z,8.92
2017-12-02T14:34:01.000Z,8.95
2017-12-02T14:36:27.456Z,8.97
2017-12-02T14:38:53.890Z,8.99
2017-12-02T14:41:20.304Z,8.87
2017-12-02T14:43:47.609Z,8.92
2017-12-02T14:46:14.402Z,8.90
2017-12-02T14:48:40.777Z,8.88
2017-12-02T14:51:07.169Z,8.93
2017-12-02T14:53:34.045Z,9.01
2017-12-02T14:56:00.377Z,8.96
2017-12-02T14:58:26.782Z,8.88
2017-12-02T15:00:53.223Z,8.86
2017-12-02T15:03:19.650Z,8.76
2017-12-02T15:05:46.493Z,8.80
2017-12-02T15:08:13.030Z,8.77
2017-12-02T15:10:39.775Z,8.78
2017-12-02T15:13:06.584Z,8.80
2017-12-02T15:15:33.050Z,8.82
2017-12-02T15:17:59.418Z,8.86
2017-12-02T15:20:25.873Z,8.85
2017-12-02T15:22:52.661Z,8.84
2017-12-02T15:25:19.096Z,8.82
2017-12-02T15:27:45.465Z,8.79
2017-12-02T15:30:11.863Z,8.77
2017-12-02T15:32:38.311Z,8.78
2017-12-02T15:35:04.747Z,8.73
2017-12-02T15:37:31.884Z,8.77
2017-12-02T15:39:58.421Z,8.78
2017-12-02T15:42:24.856Z,8.70
2017-12-02T15:44:51.192Z,8.69
2017-12-02T15:47:17.622Z,8.73
2017-12-02T15:49:44.017Z,8.75
2017-12-02T15:52:10.491Z,8.74
2017-12-02T15:54:36.926Z,8.71
2017-12-02T15:57:03.361Z,8.66
2017-12-02T15:59:29.786Z,8.65
2017-12-02T16:01:56.127Z,8.71
2017-12-02T16:04:22.563Z,8.78
2017-12-02T16:06:49.098Z,8.78
2017-12-02T16:09:15.401Z,8.76
2017-12-02T16:11:41.866Z,8.78
2017-12-02T16:14:08.300Z,8.78
2017-12-02T16:16:34.736Z,8.81
2017-12-02T16:19:01.171Z,8.79
2017-12-02T16:21:27.605Z,8.84
2017-12-02T16:23:54.051Z,8.83
2017-12-02T16:26:21.296Z,8.85
2017-12-02T16:28:47.830Z,8.73
2017-12-02T16:31:14.193Z,8.85
2017-12-02T16:33:40.680Z,8.85
2017-12-02T16:36:07.119Z,8.88
2017-12-02T16:38:33.568Z,8.88
2017-12-02T16:41:00.003Z,8.89
2017-12-02T16:43:27.245Z,8.91
2017-12-02T16:45:53.692Z,8.90
2017-12-02T16:48:20.126Z,8.91
2017-12-02T16:50:46.586Z,8.82
2017-12-02T16:53:12.995Z,8.85
2017-12-02T16:55:39.450Z,8.89
2017-12-02T16:58:05.881Z,8.97
2017-12-02T17:00:33.049Z,8.98
2017-12-02T17:02:59.381Z,8.97
2017-12-02T17:05:25.782Z,8.94
2017-12-02T17:07:52.293Z,8.93
2017-12-02T17:10:18.651Z,8.96
2017-12-02T17:12:45.085Z,8.94
2017-12-02T17:15:11.394Z,8.88
2017-12-02T17:17:38.671Z,8.93
2017-12-02T17:20:05.130Z,8.86
2017-12-02T17:22:31.541Z,8.91
2017-12-02T17:24:57.909Z,8.94
2017-12-02T17:27:24.308Z,8.98
2017-12-02T17:29:50.845Z,8.96
2017-12-02T17:32:17.280Z,9.00
2017-12-02T17:34:44.329Z,9.07
2017-12-02T17:37:10.763Z,9.05
2017-12-02T17:39:37.096Z,8.98
2017-12-02T17:42:03.531Z,8.91
2017-12-02T17:44:29.862Z,8.92
2017-12-02T17:46:56.297Z,8.93
2017-12-02T17:49:22.838Z,8.96
2017-12-02T17:51:49.986Z,8.98
2017-12-02T17:54:16.422Z,8.92
2017-12-02T17:56:42.789Z,8.93
2017-12-02T17:59:09.192Z,8.99
2017-12-02T18:01:35.621Z,9.00
2017-12-02T18:04:02.160Z,8.98
2017-12-02T18:06:28.594Z,8.90
2017-12-02T18:08:55.782Z,8.97
2017-12-02T18:11:22.281Z,8.90
2017-12-02T18:13:48.717Z,8.77
2017-12-02T18:16:15.151Z,8.73
2017-12-02T18:18:41.586Z,8.67
2017-12-02T18:21:08.023Z,8.65
2017-12-02T18:23:34.455Z,8.61
2017-12-02T18:26:01.709Z,8.43
2017-12-02T18:28:28.040Z,8.56
2017-12-02T18:30:54.474Z,8.55
2017-12-02T18:33:20.844Z,8.55
2017-12-02T18:35:47.344Z,8.58
2017-12-02T18:38:13.780Z,8.61
2017-12-02T18:40:40.151Z,8.62
2017-12-02T18:43:07.366Z,8.63
2017-12-02T18:45:33.801Z,8.60
2017-12-02T18:48:00.235Z,8.59
2017-12-02T18:50:26.676Z,8.64
2017-12-02T18:52:53.105Z,8.58
2017-12-02T18:55:19.470Z,8.63
2017-12-02T18:57:45.841Z,8.54
2017-12-02T19:00:13.125Z,8.57
2017-12-02T19:02:39.559Z,8.60
2017-12-02T19:05:05.997Z,8.66
2017-12-02T19:07:32.432Z,8.72
2017-12-02T19:09:58.864Z,8.71
2017-12-02T19:12:25.300Z,8.69
2017-12-02T19:14:51.746Z,8.60
2017-12-02T19:17:18.918Z,8.63
2017-12-02T19:19:45.424Z,8.60
2017-12-02T19:22:11.856Z,8.56
2017-12-02T19:24:38.296Z,8.61
2017-12-02T19:27:04.724Z,8.60
2017-12-02T19:29:31.160Z,8.63
2017-12-02T19:31:57.595Z,8.64
2017-12-02T19:34:24.849Z,8.65
2017-12-02T19:36:51.183Z,8.64
2017-12-02T19:39:17.634Z,8.64
2017-12-02T19:41:44.049Z,8.65
2017-12-02T19:44:10.519Z,8.63
2017-12-02T19:46:36.855Z,8.60
2017-12-02T19:49:03.182Z,8.62
2017-12-02T19:51:30.402Z,8.66
2017-12-02T19:53:56.838Z,8.68
2017-12-02T19:56:23.271Z,8.67
2017-12-02T19:58:49.706Z,8.67
2017-12-02T20:01:16.038Z,8.64
2017-12-02T20:03:42.473Z,8.66
2017-12-02T20:06:08.999Z,8.74
2017-12-02T20:08:36.059Z,8.73
2017-12-02T20:11:02.531Z,8.68
2017-12-02T20:13:28.930Z,8.64
2017-12-02T20:15:55.363Z,8.64
2017-12-02T20:18:21.797Z,8.64
2017-12-02T20:20:48.233Z,8.67
2017-12-02T20:23:14.667Z,8.71
2017-12-02T20:25:41.818Z,8.70
2017-12-02T20:28:08.253Z,8.62
2017-12-02T20:30:34.644Z,8.65
2017-12-02T20:33:01.062Z,8.69
2017-12-02T20:35:27.386Z,8.62
2017-12-02T20:37:53.722Z,8.64
2017-12-02T20:40:20.078Z,8.54
2017-12-02T20:42:47.270Z,8.61
2017-12-02T20:45:13.704Z,8.68
2017-12-02T20:47:40.139Z,8.68
2017-12-02T20:50:06.576Z,8.67
2017-12-02T20:52:33.008Z,8.54
2017-12-02T20:54:59.382Z,8.64
2017-12-02T20:57:25.774Z,8.62
2017-12-02T20:59:53.032Z,8.62
2017-12-02T21:02:19.544Z,8.61
2017-12-02T21:04:45.939Z,8.61
2017-12-02T21:07:12.333Z,8.67
2017-12-02T21:09:38.767Z,8.71
2017-12-02T21:12:05.202Z,8.65
2017-12-02T21:14:31.639Z,8.64
2017-12-02T21:16:58.788Z,8.71
2017-12-02T21:19:25.223Z,8.69
2017-12-02T21:21:51.760Z,8.72
2017-12-02T21:24:18.092Z,8.72
2017-12-02T21:26:44.527Z,8.69
2017-12-02T21:29:10.961Z,8.67
2017-12-02T21:31:37.396Z,8.64
2017-12-02T21:34:04.649Z,8.55
2017-12-02T21:36:31.084Z,8.63
2017-12-02T21:38:57.406Z,8.69
2017-12-02T21:41:23.870Z,8.69
2017-12-02T21:43:50.286Z,8.71
2017-12-02T21:46:16.720Z,8.75
2017-12-02T21:48:43.154Z,8.75
2017-12-02T21:51:10.287Z,8.72
2017-12-02T21:53:36.843Z,8.71
2017-12-02T21:56:03.278Z,8.72
2017-12-02T21:58:29.646Z,8.71
2017-12-02T22:00:56.045Z,8.64
2017-12-02T22:03:22.479Z,8.65
2017-12-02T22:05:48.913Z,8.62
2017-12-02T22:08:16.066Z,8.65
2017-12-02T22:10:42.506Z,8.69
2017-12-02T22:13:08.868Z,8.70
2017-12-02T22:15:35.267Z,8.74
2017-12-02T22:18:01.707Z,8.80
2017-12-02T22:20:28.055Z,8.84
2017-12-02T22:22:54.570Z,8.80
2017-12-02T22:25:21.703Z,8.78
2017-12-02T22:27:48.016Z,8.82
2017-12-02T22:30:14.424Z,8.74
2017-12-02T22:32:40.820Z,8.71
2017-12-02T22:35:07.221Z,8.64
2017-12-02T22:37:33.685Z,8.70
2017-12-02T22:40:00.129Z,8.78
2017-12-02T22:42:27.406Z,8.77
2017-12-02T22:44:53.814Z,8.75
2017-12-02T22:47:20.248Z,8.76
2017-12-02T22:49:46.786Z,8.76
2017-12-02T22:52:13.220Z,8.78
2017-12-02T22:54:39.654Z,8.77
2017-12-02T22:57:06.092Z,8.80
2017-12-02T22:59:33.241Z,8.74
2017-12-02T23:01:59.675Z,8.64
2017-12-02T23:04:26.111Z,8.81
2017-12-02T23:06:52.544Z,8.80
2017-12-02T23:09:18.979Z,8.77
2017-12-02T23:11:45.350Z,8.80
2017-12-02T23:14:11.745Z,8.81
2017-12-02T23:16:38.989Z,8.79
2017-12-02T23:19:05.370Z,8.75
2017-12-02T23:21:31.724Z,8.78
2017-12-02T23:23:58.122Z,8.80
2017-12-02T23:26:24.470Z,8.79
2017-12-02T23:28:50.865Z,8.82
2017-12-02T23:31:17.294Z,8.69
2017-12-02T23:33:44.435Z,8.74
2017-12-02T23:36:10.877Z,8.71
2017-12-02T23:38:37.320Z,8.73
2017-12-02T23:41:03.770Z,8.76
2017-12-02T23:43:30.190Z,8.75
2017-12-02T23:45:56.626Z,8.75
2017-12-02T23:48:23.059Z,8.78
2017-12-02T23:50:50.305Z,8.75
2017-12-02T23:53:16.747Z,8.77
2017-12-02T23:55:43.165Z,8.78
2017-12-02T23:58:09.606Z,8.78
